sensor_id;sensor_type;location;lat;lon;timestamp;P1;durP1;ratioP1;P2;durP2;ratioP2
63110;SDS011;49201;53.426;10.300;2022-07-17T00:01:27;8.87;;;2.10;;
63110;SDS011;49201;53.426;10.300;2022-07-17T00:03:52;8.50;;;2.63;;
63110;SDS011;49201;53.426;10.300;2022-07-17T00:06:18;6.10;;;2.07;;
63110;SDS011;49201;53.426;10.300;2022-07-17T00:08:43;11.33;;;1.97;;
63110;SDS011;49201;53.426;10.300;2022-07-17T00:11:09;6.70;;;2.53;;
63110;SDS011;49201;53.426;10.300;2022-07-17T00:13:35;5.87;;;2.20;;
63110;SDS011;49201;53.426;10.300;2022-07-17T00:16:00;9.00;;;2.60;;
63110;SDS011;49201;53.426;10.300;2022-07-17T00:18:26;8.03;;;2.80;;
63110;SDS011;49201;53.426;10.300;2022-07-17T00:20:51;8.53;;;2.23;;
63110;SDS011;49201;53.426;10.300;2022-07-17T00:23:17;7.57;;;2.13;;
63110;SDS011;49201;53.426;10.300;2022-07-17T00:25:43;8.57;;;2.10;;
63110;SDS011;49201;53.426;10.300;2022-07-17T00:28:09;5.40;;;2.13;;
63110;SDS011;49201;53.426;10.300;2022-07-17T00:30:34;8.60;;;2.50;;
63110;SDS011;49201;53.426;10.300;2022-07-17T00:33:00;9.30;;;2.10;;
63110;SDS011;49201;53.426;10.300;2022-07-17T00:35:26;9.80;;;2.20;;
63110;SDS011;49201;53.426;10.300;2022-07-17T00:37:51;7.97;;;2.70;;
63110;SDS011;49201;53.426;10.300;2022-07-17T00:40:21;8.87;;;2.90;;
63110;SDS011;49201;53.426;10.300;2022-07-17T00:42:47;9.63;;;2.57;;
63110;SDS011;49201;53.426;10.300;2022-07-17T00:45:14;9.57;;;2.33;;
63110;SDS011;49201;53.426;10.300;2022-07-17T00:50:17;7.97;;;2.40;;
63110;SDS011;49201;53.426;10.300;2022-07-17T00:52:43;9.97;;;2.37;;
63110;SDS011;49201;53.426;10.300;2022-07-17T00:55:10;10.43;;;2.37;;
63110;SDS011;49201;53.426;10.300;2022-07-17T00:57:37;7.70;;;2.33;;
63110;SDS011;49201;53.426;10.300;2022-07-17T01:00:05;8.40;;;2.60;;
63110;SDS011;49201;53.426;10.300;2022-07-17T01:02:35;7.80;;;2.50;;
63110;SDS011;49201;53.426;10.300;2022-07-17T01:05:02;6.70;;;2.50;;
63110;SDS011;49201;53.426;10.300;2022-07-17T01:07:29;10.13;;;2.60;;
63110;SDS011;49201;53.426;10.300;2022-07-17T01:09:54;6.50;;;2.43;;
63110;SDS011;49201;53.426;10.300;2022-07-17T01:12:20;7.77;;;2.40;;
63110;SDS011;49201;53.426;10.300;2022-07-17T01:14:46;6.20;;;2.20;;
63110;SDS011;49201;53.426;10.300;2022-07-17T01:17:12;8.47;;;2.50;;
63110;SDS011;49201;53.426;10.300;2022-07-17T01:19:38;9.93;;;2.90;;
63110;SDS011;49201;53.426;10.300;2022-07-17T01:22:03;6.70;;;2.50;;
63110;SDS011;49201;53.426;10.300;2022-07-17T01:24:28;7.00;;;2.13;;
63110;SDS011;49201;53.426;10.300;2022-07-17T01:26:54;7.17;;;2.53;;
63110;SDS011;49201;53.426;10.300;2022-07-17T01:29:19;7.53;;;2.30;;
63110;SDS011;49201;53.426;10.300;2022-07-17T01:31:45;6.40;;;2.50;;
63110;SDS011;49201;53.426;10.300;2022-07-17T01:34:11;8.53;;;2.30;;
63110;SDS011;49201;53.426;10.300;2022-07-17T01:36:40;10.40;;;2.90;;
63110;SDS011;49201;53.426;10.300;2022-07-17T01:39:06;9.10;;;2.40;;
63110;SDS011;49201;53.426;10.300;2022-07-17T01:41:32;7.77;;;2.60;;
63110;SDS011;49201;53.426;10.300;2022-07-17T01:43:58;6.93;;;2.70;;
63110;SDS011;49201;53.426;10.300;2022-07-17T01:46:24;6.40;;;2.40;;
63110;SDS011;49201;53.426;10.300;2022-07-17T01:48:50;9.63;;;3.00;;
63110;SDS011;49201;53.426;10.300;2022-07-17T01:51:16;8.23;;;2.80;;
63110;SDS011;49201;53.426;10.300;2022-07-17T01:53:41;10.23;;;3.43;;
63110;SDS011;49201;53.426;10.300;2022-07-17T01:56:07;6.07;;;2.37;;
63110;SDS011;49201;53.426;10.300;2022-07-17T01:58:33;9.13;;;2.57;;
63110;SDS011;49201;53.426;10.300;2022-07-17T02:00:58;10.90;;;3.23;;
63110;SDS011;49201;53.426;10.300;2022-07-17T02:03:24;6.33;;;2.60;;
63110;SDS011;49201;53.426;10.300;2022-07-17T02:05:50;11.03;;;3.40;;
63110;SDS011;49201;53.426;10.300;2022-07-17T02:08:15;7.53;;;2.90;;
63110;SDS011;49201;53.426;10.300;2022-07-17T02:10:41;6.97;;;2.50;;
63110;SDS011;49201;53.426;10.300;2022-07-17T02:13:06;6.37;;;2.53;;
63110;SDS011;49201;53.426;10.300;2022-07-17T02:15:32;10.67;;;2.80;;
63110;SDS011;49201;53.426;10.300;2022-07-17T02:17:57;6.97;;;2.70;;
63110;SDS011;49201;53.426;10.300;2022-07-17T02:20:23;6.70;;;2.67;;
63110;SDS011;49201;53.426;10.300;2022-07-17T02:22:48;8.53;;;2.83;;
63110;SDS011;49201;53.426;10.300;2022-07-17T02:25:14;6.30;;;2.63;;
63110;SDS011;49201;53.426;10.300;2022-07-17T02:27:40;9.27;;;2.60;;
63110;SDS011;49201;53.426;10.300;2022-07-17T02:30:07;6.97;;;2.80;;
63110;SDS011;49201;53.426;10.300;2022-07-17T02:32:35;6.70;;;2.73;;
63110;SDS011;49201;53.426;10.300;2022-07-17T02:35:01;5.43;;;2.80;;
63110;SDS011;49201;53.426;10.300;2022-07-17T02:37:26;8.73;;;2.97;;
63110;SDS011;49201;53.426;10.300;2022-07-17T02:39:52;7.47;;;2.90;;
63110;SDS011;49201;53.426;10.300;2022-07-17T02:42:24;9.70;;;2.63;;
63110;SDS011;49201;53.426;10.300;2022-07-17T02:44:51;8.33;;;2.80;;
63110;SDS011;49201;53.426;10.300;2022-07-17T02:47:24;10.00;;;3.30;;
63110;SDS011;49201;53.426;10.300;2022-07-17T02:49:52;12.73;;;3.30;;
63110;SDS011;49201;53.426;10.300;2022-07-17T02:52:18;9.17;;;2.60;;
63110;SDS011;49201;53.426;10.300;2022-07-17T02:54:44;7.80;;;2.93;;
63110;SDS011;49201;53.426;10.300;2022-07-17T02:57:10;8.57;;;2.80;;
63110;SDS011;49201;53.426;10.300;2022-07-17T02:59:35;8.43;;;2.77;;
63110;SDS011;49201;53.426;10.300;2022-07-17T03:02:01;9.60;;;3.23;;
63110;SDS011;49201;53.426;10.300;2022-07-17T03:04:26;6.53;;;2.67;;
63110;SDS011;49201;53.426;10.300;2022-07-17T03:06:51;7.03;;;2.90;;
63110;SDS011;49201;53.426;10.300;2022-07-17T03:09:17;7.97;;;2.83;;
63110;SDS011;49201;53.426;10.300;2022-07-17T03:11:42;8.97;;;3.00;;
63110;SDS011;49201;53.426;10.300;2022-07-17T03:14:09;10.13;;;2.87;;
63110;SDS011;49201;53.426;10.300;2022-07-17T03:16:34;7.30;;;2.73;;
63110;SDS011;49201;53.426;10.300;2022-07-17T03:18:59;8.43;;;2.97;;
63110;SDS011;49201;53.426;10.300;2022-07-17T03:21:25;6.77;;;3.37;;
63110;SDS011;49201;53.426;10.300;2022-07-17T03:23:50;7.33;;;2.97;;
63110;SDS011;49201;53.426;10.300;2022-07-17T03:26:16;9.80;;;2.73;;
63110;SDS011;49201;53.426;10.300;2022-07-17T03:28:41;7.30;;;3.27;;
63110;SDS011;49201;53.426;10.300;2022-07-17T03:31:06;9.27;;;2.80;;
63110;SDS011;49201;53.426;10.300;2022-07-17T03:33:32;8.13;;;3.30;;
63110;SDS011;49201;53.426;10.300;2022-07-17T03:35:57;8.43;;;3.30;;
63110;SDS011;49201;53.426;10.300;2022-07-17T03:38:23;9.83;;;3.00;;
63110;SDS011;49201;53.426;10.300;2022-07-17T03:40:48;6.60;;;2.70;;
63110;SDS011;49201;53.426;10.300;2022-07-17T03:43:14;7.93;;;2.63;;
63110;SDS011;49201;53.426;10.300;2022-07-17T03:45:39;5.50;;;2.57;;
63110;SDS011;49201;53.426;10.300;2022-07-17T03:48:05;9.27;;;2.80;;
63110;SDS011;49201;53.426;10.300;2022-07-17T03:50:31;4.57;;;2.23;;
63110;SDS011;49201;53.426;10.300;2022-07-17T03:52:56;7.20;;;2.90;;
63110;SDS011;49201;53.426;10.300;2022-07-17T03:55:22;7.70;;;2.60;;
63110;SDS011;49201;53.426;10.300;2022-07-17T03:57:47;12.20;;;3.03;;
63110;SDS011;49201;53.426;10.300;2022-07-17T04:00:13;6.27;;;2.63;;
63110;SDS011;49201;53.426;10.300;2022-07-17T04:02:40;7.90;;;2.77;;
63110;SDS011;49201;53.426;10.300;2022-07-17T04:05:06;7.63;;;3.17;;
63110;SDS011;49201;53.426;10.300;2022-07-17T04:07:38;11.70;;;3.40;;
63110;SDS011;49201;53.426;10.300;2022-07-17T04:10:06;6.27;;;2.43;;
63110;SDS011;49201;53.426;10.300;2022-07-17T04:12:32;7.37;;;2.90;;
63110;SDS011;49201;53.426;10.300;2022-07-17T04:14:58;5.27;;;2.80;;
63110;SDS011;49201;53.426;10.300;2022-07-17T04:17:23;6.97;;;3.00;;
63110;SDS011;49201;53.426;10.300;2022-07-17T04:19:49;7.80;;;2.93;;
63110;SDS011;49201;53.426;10.300;2022-07-17T04:22:15;5.57;;;2.97;;
63110;SDS011;49201;53.426;10.300;2022-07-17T04:24:41;6.83;;;2.80;;
63110;SDS011;49201;53.426;10.300;2022-07-17T04:27:07;6.23;;;3.13;;
63110;SDS011;49201;53.426;10.300;2022-07-17T04:29:32;7.47;;;3.20;;
63110;SDS011;49201;53.426;10.300;2022-07-17T04:31:59;6.57;;;3.30;;
63110;SDS011;49201;53.426;10.300;2022-07-17T04:34:24;8.93;;;3.40;;
63110;SDS011;49201;53.426;10.300;2022-07-17T04:36:50;9.07;;;3.00;;
63110;SDS011;49201;53.426;10.300;2022-07-17T04:39:15;10.47;;;3.30;;
63110;SDS011;49201;53.426;10.300;2022-07-17T04:41:41;8.47;;;2.30;;
63110;SDS011;49201;53.426;10.300;2022-07-17T04:44:06;7.20;;;2.73;;
63110;SDS011;49201;53.426;10.300;2022-07-17T04:46:32;11.47;;;2.83;;
63110;SDS011;49201;53.426;10.300;2022-07-17T04:48:57;6.60;;;2.60;;
63110;SDS011;49201;53.426;10.300;2022-07-17T04:51:23;6.90;;;2.60;;
63110;SDS011;49201;53.426;10.300;2022-07-17T04:53:48;10.83;;;2.83;;
63110;SDS011;49201;53.426;10.300;2022-07-17T04:56:13;10.63;;;2.57;;
63110;SDS011;49201;53.426;10.300;2022-07-17T04:58:39;9.03;;;2.30;;
63110;SDS011;49201;53.426;10.300;2022-07-17T05:01:04;10.50;;;2.50;;
63110;SDS011;49201;53.426;10.300;2022-07-17T05:03:30;6.17;;;2.27;;
63110;SDS011;49201;53.426;10.300;2022-07-17T05:05:55;7.33;;;2.50;;
63110;SDS011;49201;53.426;10.300;2022-07-17T05:08:21;6.50;;;2.70;;
63110;SDS011;49201;53.426;10.300;2022-07-17T05:10:46;6.77;;;2.57;;
63110;SDS011;49201;53.426;10.300;2022-07-17T05:13:11;6.97;;;2.40;;
63110;SDS011;49201;53.426;10.300;2022-07-17T05:15:37;6.10;;;2.20;;
63110;SDS011;49201;53.426;10.300;2022-07-17T05:18:03;6.40;;;2.40;;
63110;SDS011;49201;53.426;10.300;2022-07-17T05:20:28;10.33;;;2.70;;
63110;SDS011;49201;53.426;10.300;2022-07-17T05:22:54;8.20;;;2.30;;
63110;SDS011;49201;53.426;10.300;2022-07-17T05:25:19;6.80;;;2.57;;
63110;SDS011;49201;53.426;10.300;2022-07-17T05:27:45;5.70;;;2.30;;
63110;SDS011;49201;53.426;10.300;2022-07-17T05:30:10;6.80;;;2.37;;
63110;SDS011;49201;53.426;10.300;2022-07-17T05:32:36;8.90;;;2.50;;
63110;SDS011;49201;53.426;10.300;2022-07-17T05:35:01;6.60;;;2.47;;
63110;SDS011;49201;53.426;10.300;2022-07-17T05:37:27;9.97;;;2.57;;
63110;SDS011;49201;53.426;10.300;2022-07-17T05:39:52;8.00;;;2.57;;
63110;SDS011;49201;53.426;10.300;2022-07-17T05:42:18;7.07;;;2.10;;
63110;SDS011;49201;53.426;10.300;2022-07-17T05:44:43;6.83;;;2.23;;
63110;SDS011;49201;53.426;10.300;2022-07-17T05:47:08;6.90;;;2.03;;
63110;SDS011;49201;53.426;10.300;2022-07-17T05:49:34;6.37;;;2.37;;
63110;SDS011;49201;53.426;10.300;2022-07-17T05:51:59;9.27;;;2.40;;
63110;SDS011;49201;53.426;10.300;2022-07-17T05:54:25;6.53;;;2.47;;
63110;SDS011;49201;53.426;10.300;2022-07-17T05:56:50;6.30;;;2.37;;
63110;SDS011;49201;53.426;10.300;2022-07-17T05:59:16;6.00;;;2.13;;
63110;SDS011;49201;53.426;10.300;2022-07-17T06:01:41;8.27;;;2.23;;
63110;SDS011;49201;53.426;10.300;2022-07-17T06:04:07;8.07;;;2.40;;
63110;SDS011;49201;53.426;10.300;2022-07-17T06:06:32;5.90;;;2.03;;
63110;SDS011;49201;53.426;10.300;2022-07-17T06:08:57;5.93;;;2.33;;
63110;SDS011;49201;53.426;10.300;2022-07-17T06:11:23;4.73;;;1.83;;
63110;SDS011;49201;53.426;10.300;2022-07-17T06:13:48;6.03;;;2.20;;
63110;SDS011;49201;53.426;10.300;2022-07-17T06:16:14;6.00;;;2.20;;
63110;SDS011;49201;53.426;10.300;2022-07-17T06:18:39;4.37;;;1.90;;
63110;SDS011;49201;53.426;10.300;2022-07-17T06:21:05;5.10;;;2.40;;
63110;SDS011;49201;53.426;10.300;2022-07-17T06:23:30;6.47;;;2.20;;
63110;SDS011;49201;53.426;10.300;2022-07-17T06:25:56;6.17;;;1.97;;
63110;SDS011;49201;53.426;10.300;2022-07-17T06:28:21;4.47;;;2.50;;
63110;SDS011;49201;53.426;10.300;2022-07-17T06:30:46;6.93;;;2.37;;
63110;SDS011;49201;53.426;10.300;2022-07-17T06:33:12;5.17;;;1.90;;
63110;SDS011;49201;53.426;10.300;2022-07-17T06:35:38;7.13;;;2.17;;
63110;SDS011;49201;53.426;10.300;2022-07-17T06:38:03;6.20;;;1.80;;
63110;SDS011;49201;53.426;10.300;2022-07-17T06:40:29;5.70;;;2.00;;
63110;SDS011;49201;53.426;10.300;2022-07-17T06:42:55;7.80;;;2.00;;
63110;SDS011;49201;53.426;10.300;2022-07-17T06:45:20;6.57;;;2.33;;
63110;SDS011;49201;53.426;10.300;2022-07-17T06:47:46;7.43;;;2.13;;
63110;SDS011;49201;53.426;10.300;2022-07-17T06:50:11;5.50;;;2.07;;
63110;SDS011;49201;53.426;10.300;2022-07-17T06:52:37;5.83;;;2.00;;
63110;SDS011;49201;53.426;10.300;2022-07-17T06:55:03;5.20;;;1.87;;
63110;SDS011;49201;53.426;10.300;2022-07-17T06:57:28;5.77;;;2.60;;
63110;SDS011;49201;53.426;10.300;2022-07-17T06:59:54;5.80;;;1.70;;
63110;SDS011;49201;53.426;10.300;2022-07-17T07:02:19;5.53;;;1.90;;
63110;SDS011;49201;53.426;10.300;2022-07-17T07:04:45;5.53;;;1.97;;
63110;SDS011;49201;53.426;10.300;2022-07-17T07:07:10;4.33;;;1.60;;
63110;SDS011;49201;53.426;10.300;2022-07-17T07:09:36;3.90;;;1.60;;
63110;SDS011;49201;53.426;10.300;2022-07-17T07:12:01;3.80;;;1.63;;
63110;SDS011;49201;53.426;10.300;2022-07-17T07:14:27;6.60;;;1.80;;
63110;SDS011;49201;53.426;10.300;2022-07-17T07:16:53;5.23;;;1.57;;
63110;SDS011;49201;53.426;10.300;2022-07-17T07:19:18;7.67;;;1.80;;
63110;SDS011;49201;53.426;10.300;2022-07-17T07:21:44;4.63;;;1.30;;
63110;SDS011;49201;53.426;10.300;2022-07-17T07:24:09;6.03;;;1.87;;
63110;SDS011;49201;53.426;10.300;2022-07-17T07:26:36;6.97;;;1.73;;
63110;SDS011;49201;53.426;10.300;2022-07-17T07:29:02;5.10;;;1.80;;
63110;SDS011;49201;53.426;10.300;2022-07-17T07:31:28;9.90;;;2.63;;
63110;SDS011;49201;53.426;10.300;2022-07-17T07:33:53;6.03;;;1.90;;
63110;SDS011;49201;53.426;10.300;2022-07-17T07:36:19;7.73;;;1.63;;
63110;SDS011;49201;53.426;10.300;2022-07-17T07:38:44;5.73;;;2.00;;
63110;SDS011;49201;53.426;10.300;2022-07-17T07:41:12;6.03;;;1.47;;
63110;SDS011;49201;53.426;10.300;2022-07-17T07:43:38;6.63;;;1.60;;
63110;SDS011;49201;53.426;10.300;2022-07-17T07:46:03;6.80;;;1.50;;
63110;SDS011;49201;53.426;10.300;2022-07-17T07:48:30;6.70;;;1.80;;
63110;SDS011;49201;53.426;10.300;2022-07-17T07:50:55;6.30;;;1.70;;
63110;SDS011;49201;53.426;10.300;2022-07-17T07:53:21;4.50;;;1.60;;
63110;SDS011;49201;53.426;10.300;2022-07-17T07:55:46;7.90;;;2.10;;
63110;SDS011;49201;53.426;10.300;2022-07-17T07:58:12;3.80;;;1.70;;
63110;SDS011;49201;53.426;10.300;2022-07-17T08:00:39;5.67;;;1.87;;
63110;SDS011;49201;53.426;10.300;2022-07-17T08:03:05;5.60;;;1.87;;
63110;SDS011;49201;53.426;10.300;2022-07-17T08:05:32;6.83;;;1.63;;
63110;SDS011;49201;53.426;10.300;2022-07-17T08:07:58;5.53;;;1.53;;
63110;SDS011;49201;53.426;10.300;2022-07-17T08:10:24;4.60;;;1.80;;
63110;SDS011;49201;53.426;10.300;2022-07-17T08:12:49;5.07;;;1.80;;
63110;SDS011;49201;53.426;10.300;2022-07-17T08:15:16;4.83;;;1.70;;
63110;SDS011;49201;53.426;10.300;2022-07-17T08:17:46;7.43;;;2.03;;
63110;SDS011;49201;53.426;10.300;2022-07-17T08:20:13;4.10;;;1.97;;
63110;SDS011;49201;53.426;10.300;2022-07-17T08:22:40;7.67;;;1.83;;
63110;SDS011;49201;53.426;10.300;2022-07-17T08:25:07;8.20;;;2.10;;
63110;SDS011;49201;53.426;10.300;2022-07-17T08:27:40;5.70;;;2.07;;
63110;SDS011;49201;53.426;10.300;2022-07-17T08:30:07;5.90;;;1.90;;
63110;SDS011;49201;53.426;10.300;2022-07-17T08:32:34;6.00;;;2.00;;
63110;SDS011;49201;53.426;10.300;2022-07-17T08:34:59;6.30;;;2.10;;
63110;SDS011;49201;53.426;10.300;2022-07-17T08:37:25;4.07;;;1.90;;
63110;SDS011;49201;53.426;10.300;2022-07-17T08:39:51;5.50;;;2.30;;
63110;SDS011;49201;53.426;10.300;2022-07-17T08:42:17;5.07;;;2.10;;
63110;SDS011;49201;53.426;10.300;2022-07-17T08:44:42;8.83;;;2.30;;
63110;SDS011;49201;53.426;10.300;2022-07-17T08:47:09;7.20;;;1.80;;
63110;SDS011;49201;53.426;10.300;2022-07-17T08:49:36;3.83;;;1.50;;
63110;SDS011;49201;53.426;10.300;2022-07-17T08:52:11;5.40;;;1.97;;
63110;SDS011;49201;53.426;10.300;2022-07-17T08:54:38;7.00;;;1.70;;
63110;SDS011;49201;53.426;10.300;2022-07-17T08:57:04;3.80;;;1.60;;
63110;SDS011;49201;53.426;10.300;2022-07-17T08:59:30;6.73;;;2.00;;
63110;SDS011;49201;53.426;10.300;2022-07-17T09:01:57;5.07;;;1.93;;
63110;SDS011;49201;53.426;10.300;2022-07-17T09:04:24;5.13;;;1.40;;
63110;SDS011;49201;53.426;10.300;2022-07-17T09:07:03;4.83;;;1.60;;
63110;SDS011;49201;53.426;10.300;2022-07-17T09:09:29;3.53;;;1.40;;
63110;SDS011;49201;53.426;10.300;2022-07-17T09:11:56;6.03;;;1.93;;
63110;SDS011;49201;53.426;10.300;2022-07-17T09:14:24;8.37;;;2.27;;
63110;SDS011;49201;53.426;10.300;2022-07-17T09:17:00;6.67;;;2.10;;
63110;SDS011;49201;53.426;10.300;2022-07-17T09:19:26;5.20;;;1.57;;
63110;SDS011;49201;53.426;10.300;2022-07-17T09:22:05;7.53;;;1.97;;
63110;SDS011;49201;53.426;10.300;2022-07-17T09:27:07;5.77;;;2.10;;
63110;SDS011;49201;53.426;10.300;2022-07-17T09:29:32;5.97;;;2.10;;
63110;SDS011;49201;53.426;10.300;2022-07-17T09:31:58;5.07;;;1.80;;
63110;SDS011;49201;53.426;10.300;2022-07-17T09:34:24;5.57;;;1.70;;
63110;SDS011;49201;53.426;10.300;2022-07-17T09:37:01;6.60;;;1.67;;
63110;SDS011;49201;53.426;10.300;2022-07-17T09:39:37;4.27;;;1.60;;
63110;SDS011;49201;53.426;10.300;2022-07-17T09:42:03;7.43;;;1.80;;
63110;SDS011;49201;53.426;10.300;2022-07-17T09:44:29;7.27;;;2.10;;
63110;SDS011;49201;53.426;10.300;2022-07-17T09:46:54;5.03;;;2.10;;
63110;SDS011;49201;53.426;10.300;2022-07-17T09:49:22;5.63;;;2.30;;
63110;SDS011;49201;53.426;10.300;2022-07-17T09:51:52;7.23;;;1.93;;
63110;SDS011;49201;53.426;10.300;2022-07-17T09:54:22;4.73;;;1.93;;
63110;SDS011;49201;53.426;10.300;2022-07-17T09:56:49;7.53;;;1.73;;
63110;SDS011;49201;53.426;10.300;2022-07-17T09:59:16;7.20;;;1.80;;
63110;SDS011;49201;53.426;10.300;2022-07-17T10:01:43;3.53;;;1.58;;
63110;SDS011;49201;53.426;10.300;2022-07-17T10:04:10;7.60;;;1.83;;
63110;SDS011;49201;53.426;10.300;2022-07-17T10:06:36;3.92;;;1.48;;
63110;SDS011;49201;53.426;10.300;2022-07-17T10:09:02;7.40;;;1.90;;
63110;SDS011;49201;53.426;10.300;2022-07-17T10:11:30;6.85;;;1.90;;
63110;SDS011;49201;53.426;10.300;2022-07-17T10:14:04;4.75;;;1.90;;
63110;SDS011;49201;53.426;10.300;2022-07-17T10:16:33;4.78;;;1.63;;
63110;SDS011;49201;53.426;10.300;2022-07-17T10:19:01;6.05;;;1.83;;
63110;SDS011;49201;53.426;10.300;2022-07-17T10:21:28;3.78;;;1.80;;
63110;SDS011;49201;53.426;10.300;2022-07-17T10:26:33;4.18;;;1.73;;
63110;SDS011;49201;53.426;10.300;2022-07-17T10:29:02;5.60;;;1.77;;
63110;SDS011;49201;53.426;10.300;2022-07-17T10:31:31;6.93;;;1.85;;
63110;SDS011;49201;53.426;10.300;2022-07-17T10:33:58;5.10;;;1.83;;
63110;SDS011;49201;53.426;10.300;2022-07-17T10:39:10;5.70;;;1.75;;
63110;SDS011;49201;53.426;10.300;2022-07-17T10:41:38;5.20;;;1.50;;
63110;SDS011;49201;53.426;10.300;2022-07-17T10:44:04;4.75;;;1.73;;
63110;SDS011;49201;53.426;10.300;2022-07-17T10:46:29;3.50;;;1.23;;
63110;SDS011;49201;53.426;10.300;2022-07-17T10:48:55;5.63;;;1.90;;
63110;SDS011;49201;53.426;10.300;2022-07-17T10:51:23;3.72;;;1.90;;
63110;SDS011;49201;53.426;10.300;2022-07-17T10:53:49;5.03;;;1.60;;
63110;SDS011;49201;53.426;10.300;2022-07-17T10:56:15;5.63;;;1.50;;
63110;SDS011;49201;53.426;10.300;2022-07-17T10:58:42;5.10;;;1.70;;
63110;SDS011;49201;53.426;10.300;2022-07-17T11:01:18;5.57;;;1.45;;
63110;SDS011;49201;53.426;10.300;2022-07-17T11:03:49;4.30;;;1.60;;
63110;SDS011;49201;53.426;10.300;2022-07-17T11:06:20;3.25;;;1.30;;
63110;SDS011;49201;53.426;10.300;2022-07-17T11:08:57;5.47;;;1.60;;
63110;SDS011;49201;53.426;10.300;2022-07-17T11:16:51;3.80;;;1.38;;
63110;SDS011;49201;53.426;10.300;2022-07-17T11:19:21;6.10;;;1.70;;
63110;SDS011;49201;53.426;10.300;2022-07-17T11:21:49;3.70;;;1.75;;
63110;SDS011;49201;53.426;10.300;2022-07-17T11:24:16;5.35;;;1.58;;
63110;SDS011;49201;53.426;10.300;2022-07-17T11:26:43;3.75;;;1.50;;
63110;SDS011;49201;53.426;10.300;2022-07-17T11:29:12;5.78;;;1.80;;
63110;SDS011;49201;53.426;10.300;2022-07-17T11:31:37;8.13;;;2.00;;
63110;SDS011;49201;53.426;10.300;2022-07-17T11:34:04;2.55;;;1.45;;
63110;SDS011;49201;53.426;10.300;2022-07-17T11:36:35;4.03;;;1.63;;
63110;SDS011;49201;53.426;10.300;2022-07-17T11:39:04;5.45;;;1.90;;
63110;SDS011;49201;53.426;10.300;2022-07-17T11:41:38;3.65;;;1.58;;
63110;SDS011;49201;53.426;10.300;2022-07-17T11:44:09;4.93;;;1.40;;
63110;SDS011;49201;53.426;10.300;2022-07-17T11:46:40;3.67;;;1.88;;
63110;SDS011;49201;53.426;10.300;2022-07-17T11:49:08;4.35;;;1.60;;
63110;SDS011;49201;53.426;10.300;2022-07-17T11:51:38;5.00;;;1.50;;
63110;SDS011;49201;53.426;10.300;2022-07-17T11:54:15;5.13;;;1.38;;
63110;SDS011;49201;53.426;10.300;2022-07-17T11:56:42;3.38;;;1.50;;
63110;SDS011;49201;53.426;10.300;2022-07-17T11:59:09;2.38;;;1.00;;
63110;SDS011;49201;53.426;10.300;2022-07-17T12:01:39;4.20;;;1.70;;
63110;SDS011;49201;53.426;10.300;2022-07-17T12:04:13;5.80;;;1.48;;
63110;SDS011;49201;53.426;10.300;2022-07-17T12:06:40;6.63;;;2.03;;
63110;SDS011;49201;53.426;10.300;2022-07-17T12:09:06;5.45;;;1.73;;
63110;SDS011;49201;53.426;10.300;2022-07-17T12:11:32;4.90;;;1.70;;
63110;SDS011;49201;53.426;10.300;2022-07-17T12:14:09;5.00;;;1.55;;
63110;SDS011;49201;53.426;10.300;2022-07-17T12:16:35;3.15;;;1.42;;
63110;SDS011;49201;53.426;10.300;2022-07-17T12:21:29;4.68;;;1.70;;
63110;SDS011;49201;53.426;10.300;2022-07-17T12:23:57;5.03;;;1.60;;
63110;SDS011;49201;53.426;10.300;2022-07-17T12:26:28;3.95;;;1.60;;
63110;SDS011;49201;53.426;10.300;2022-07-17T12:28:55;4.47;;;1.65;;
63110;SDS011;49201;53.426;10.300;2022-07-17T12:31:20;3.53;;;1.88;;
63110;SDS011;49201;53.426;10.300;2022-07-17T12:33:48;3.30;;;1.63;;
63110;SDS011;49201;53.426;10.300;2022-07-17T12:36:16;2.85;;;1.42;;
63110;SDS011;49201;53.426;10.300;2022-07-17T12:38:41;5.38;;;1.60;;
63110;SDS011;49201;53.426;10.300;2022-07-17T12:41:07;2.22;;;1.20;;
63110;SDS011;49201;53.426;10.300;2022-07-17T12:43:32;4.13;;;1.38;;
63110;SDS011;49201;53.426;10.300;2022-07-17T12:45:58;4.40;;;1.63;;
63110;SDS011;49201;53.426;10.300;2022-07-17T12:48:24;4.80;;;1.40;;
63110;SDS011;49201;53.426;10.300;2022-07-17T12:50:49;5.38;;;1.95;;
63110;SDS011;49201;53.426;10.300;2022-07-17T12:53:15;2.78;;;1.30;;
63110;SDS011;49201;53.426;10.300;2022-07-17T12:55:40;4.15;;;1.52;;
63110;SDS011;49201;53.426;10.300;2022-07-17T12:58:06;4.30;;;1.80;;
63110;SDS011;49201;53.426;10.300;2022-07-17T13:00:31;4.13;;;1.60;;
63110;SDS011;49201;53.426;10.300;2022-07-17T13:02:57;3.38;;;1.67;;
63110;SDS011;49201;53.426;10.300;2022-07-17T13:05:23;4.57;;;1.50;;
63110;SDS011;49201;53.426;10.300;2022-07-17T13:07:49;3.95;;;1.33;;
63110;SDS011;49201;53.426;10.300;2022-07-17T13:10:15;5.72;;;1.45;;
63110;SDS011;49201;53.426;10.300;2022-07-17T13:12:40;3.05;;;1.52;;
63110;SDS011;49201;53.426;10.300;2022-07-17T13:15:06;3.75;;;1.30;;
63110;SDS011;49201;53.426;10.300;2022-07-17T13:17:32;3.80;;;1.48;;
63110;SDS011;49201;53.426;10.300;2022-07-17T13:19:57;3.47;;;1.98;;
63110;SDS011;49201;53.426;10.300;2022-07-17T13:22:23;3.85;;;1.52;;
63110;SDS011;49201;53.426;10.300;2022-07-17T13:24:48;3.38;;;1.60;;
63110;SDS011;49201;53.426;10.300;2022-07-17T13:27:14;6.45;;;1.30;;
63110;SDS011;49201;53.426;10.300;2022-07-17T13:29:39;4.22;;;1.23;;
63110;SDS011;49201;53.426;10.300;2022-07-17T13:32:05;5.13;;;1.65;;
63110;SDS011;49201;53.426;10.300;2022-07-17T13:34:30;3.55;;;1.50;;
63110;SDS011;49201;53.426;10.300;2022-07-17T13:36:56;3.80;;;1.38;;
63110;SDS011;49201;53.426;10.300;2022-07-17T13:39:22;3.80;;;1.23;;
63110;SDS011;49201;53.426;10.300;2022-07-17T13:41:48;2.75;;;1.30;;
63110;SDS011;49201;53.426;10.300;2022-07-17T13:44:13;2.40;;;1.10;;
63110;SDS011;49201;53.426;10.300;2022-07-17T13:46:39;2.53;;;1.17;;
63110;SDS011;49201;53.426;10.300;2022-07-17T13:49:04;4.32;;;1.50;;
63110;SDS011;49201;53.426;10.300;2022-07-17T13:51:30;2.00;;;1.35;;
63110;SDS011;49201;53.426;10.300;2022-07-17T13:53:56;3.22;;;1.00;;
63110;SDS011;49201;53.426;10.300;2022-07-17T13:56:23;2.72;;;1.13;;
63110;SDS011;49201;53.426;10.300;2022-07-17T13:58:49;3.13;;;1.50;;
63110;SDS011;49201;53.426;10.300;2022-07-17T14:01:14;2.85;;;1.20;;
63110;SDS011;49201;53.426;10.300;2022-07-17T14:03:40;4.15;;;1.40;;
63110;SDS011;49201;53.426;10.300;2022-07-17T14:06:06;4.03;;;1.48;;
63110;SDS011;49201;53.426;10.300;2022-07-17T14:08:31;3.88;;;1.50;;
63110;SDS011;49201;53.426;10.300;2022-07-17T14:10:57;3.42;;;1.25;;
63110;SDS011;49201;53.426;10.300;2022-07-17T14:13:23;4.55;;;1.70;;
63110;SDS011;49201;53.426;10.300;2022-07-17T14:15:49;2.47;;;1.13;;
63110;SDS011;49201;53.426;10.300;2022-07-17T14:18:14;2.03;;;1.05;;
63110;SDS011;49201;53.426;10.300;2022-07-17T14:20:40;2.17;;;0.98;;
63110;SDS011;49201;53.426;10.300;2022-07-17T14:23:05;4.50;;;1.20;;
63110;SDS011;49201;53.426;10.300;2022-07-17T14:25:31;4.40;;;1.35;;
63110;SDS011;49201;53.426;10.300;2022-07-17T14:27:56;2.30;;;1.20;;
63110;SDS011;49201;53.426;10.300;2022-07-17T14:30:23;2.33;;;1.30;;
63110;SDS011;49201;53.426;10.300;2022-07-17T14:32:48;3.50;;;1.10;;
63110;SDS011;49201;53.426;10.300;2022-07-17T14:35:14;2.88;;;1.25;;
63110;SDS011;49201;53.426;10.300;2022-07-17T14:37:39;2.35;;;1.20;;
63110;SDS011;49201;53.426;10.300;2022-07-17T14:40:05;3.85;;;1.08;;
63110;SDS011;49201;53.426;10.300;2022-07-17T14:42:31;3.38;;;1.38;;
63110;SDS011;49201;53.426;10.300;2022-07-17T14:44:59;3.95;;;1.70;;
63110;SDS011;49201;53.426;10.300;2022-07-17T14:47:25;1.90;;;1.27;;